sensor_id;sensor_type;location;lat;lon;timestamp;P1;durP1;ratioP1;P2;durP2;ratioP2
773;SDS011;370;48.810;9.150;2022-08-02T00:00:16;1.70;;;1.60;;
773;SDS011;370;48.810;9.150;2022-08-02T00:02:43;3.50;;;1.50;;
773;SDS011;370;48.810;9.150;2022-08-02T00:05:11;1.70;;;1.60;;
773;SDS011;370;48.810;9.150;2022-08-02T00:07:55;1.60;;;1.50;;
773;SDS011;370;48.810;9.150;2022-08-02T00:10:22;4.53;;;1.60;;
773;SDS011;370;48.810;9.150;2022-08-02T00:12:49;1.90;;;1.43;;
773;SDS011;370;48.810;9.150;2022-08-02T00:15:16;1.63;;;1.57;;
773;SDS011;370;48.810;9.150;2022-08-02T00:17:42;2.03;;;1.67;;
773;SDS011;370;48.810;9.150;2022-08-02T00:20:10;1.70;;;1.60;;
773;SDS011;370;48.810;9.150;2022-08-02T00:22:37;3.67;;;1.70;;
773;SDS011;370;48.810;9.150;2022-08-02T00:25:05;2.27;;;1.70;;
773;SDS011;370;48.810;9.150;2022-08-02T00:27:32;2.70;;;1.80;;
773;SDS011;370;48.810;9.150;2022-08-02T00:29:59;3.60;;;1.80;;
773;SDS011;370;48.810;9.150;2022-08-02T00:32:25;1.50;;;1.43;;
773;SDS011;370;48.810;9.150;2022-08-02T00:34:52;5.13;;;1.80;;
773;SDS011;370;48.810;9.150;2022-08-02T00:37:19;1.83;;;1.37;;
773;SDS011;370;48.810;9.150;2022-08-02T00:39:45;2.13;;;1.60;;
773;SDS011;370;48.810;9.150;2022-08-02T00:42:14;2.47;;;1.70;;
773;SDS011;370;48.810;9.150;2022-08-02T00:44:41;4.13;;;1.87;;
773;SDS011;370;48.810;9.150;2022-08-02T00:47:07;2.47;;;1.53;;
773;SDS011;370;48.810;9.150;2022-08-02T00:49:34;1.47;;;1.40;;
773;SDS011;370;48.810;9.150;2022-08-02T00:52:01;2.70;;;2.07;;
773;SDS011;370;48.810;9.150;2022-08-02T00:54:28;2.20;;;2.00;;
773;SDS011;370;48.810;9.150;2022-08-02T00:56:55;1.40;;;1.30;;
773;SDS011;370;48.810;9.150;2022-08-02T00:59:23;1.77;;;1.40;;
773;SDS011;370;48.810;9.150;2022-08-02T01:01:50;2.53;;;1.73;;
773;SDS011;370;48.810;9.150;2022-08-02T01:04:17;2.40;;;1.83;;
773;SDS011;370;48.810;9.150;2022-08-02T01:06:43;6.73;;;1.47;;
773;SDS011;370;48.810;9.150;2022-08-02T01:09:10;2.97;;;1.87;;
773;SDS011;370;48.810;9.150;2022-08-02T01:11:37;2.73;;;1.80;;
773;SDS011;370;48.810;9.150;2022-08-02T01:14:04;1.23;;;1.10;;
773;SDS011;370;48.810;9.150;2022-08-02T01:16:37;2.40;;;1.60;;
773;SDS011;370;48.810;9.150;2022-08-02T01:19:09;1.40;;;1.30;;
773;SDS011;370;48.810;9.150;2022-08-02T01:21:53;2.07;;;1.53;;
773;SDS011;370;48.810;9.150;2022-08-02T01:24:43;3.27;;;2.10;;
773;SDS011;370;48.810;9.150;2022-08-02T01:27:26;3.60;;;1.87;;
773;SDS011;370;48.810;9.150;2022-08-02T01:30:03;3.23;;;1.57;;
773;SDS011;370;48.810;9.150;2022-08-02T01:32:32;3.63;;;1.97;;
773;SDS011;370;48.810;9.150;2022-08-02T01:35:07;5.27;;;2.10;;
773;SDS011;370;48.810;9.150;2022-08-02T01:37:40;3.13;;;1.70;;
773;SDS011;370;48.810;9.150;2022-08-02T01:40:15;3.43;;;1.27;;
773;SDS011;370;48.810;9.150;2022-08-02T01:42:47;2.07;;;1.57;;
773;SDS011;370;48.810;9.150;2022-08-02T01:45:18;2.00;;;1.30;;
773;SDS011;370;48.810;9.150;2022-08-02T01:47:46;2.97;;;1.73;;
773;SDS011;370;48.810;9.150;2022-08-02T01:50:15;1.60;;;1.57;;
773;SDS011;370;48.810;9.150;2022-08-02T01:52:46;2.90;;;1.40;;
773;SDS011;370;48.810;9.150;2022-08-02T01:55:17;5.33;;;1.80;;
773;SDS011;370;48.810;9.150;2022-08-02T01:57:48;4.50;;;2.00;;
773;SDS011;370;48.810;9.150;2022-08-02T02:00:18;2.20;;;1.83;;
773;SDS011;370;48.810;9.150;2022-08-02T02:02:48;1.73;;;1.20;;
773;SDS011;370;48.810;9.150;2022-08-02T02:05:17;1.63;;;1.60;;
773;SDS011;370;48.810;9.150;2022-08-02T02:07:45;1.40;;;1.37;;
773;SDS011;370;48.810;9.150;2022-08-02T02:10:16;1.40;;;1.30;;
773;SDS011;370;48.810;9.150;2022-08-02T02:12:46;2.10;;;1.70;;
773;SDS011;370;48.810;9.150;2022-08-02T02:15:15;2.77;;;1.40;;
773;SDS011;370;48.810;9.150;2022-08-02T02:17:45;3.80;;;1.30;;
773;SDS011;370;48.810;9.150;2022-08-02T02:20:16;1.27;;;1.20;;
773;SDS011;370;48.810;9.150;2022-08-02T02:22:44;1.93;;;1.60;;
773;SDS011;370;48.810;9.150;2022-08-02T02:25:12;1.93;;;1.87;;
773;SDS011;370;48.810;9.150;2022-08-02T02:27:42;3.47;;;2.40;;
773;SDS011;370;48.810;9.150;2022-08-02T02:30:13;1.50;;;1.30;;
773;SDS011;370;48.810;9.150;2022-08-02T02:32:41;1.67;;;1.40;;
773;SDS011;370;48.810;9.150;2022-08-02T02:35:12;7.00;;;1.40;;
773;SDS011;370;48.810;9.150;2022-08-02T02:37:42;1.83;;;1.37;;
773;SDS011;370;48.810;9.150;2022-08-02T02:40:11;4.73;;;1.53;;
773;SDS011;370;48.810;9.150;2022-08-02T02:42:40;2.50;;;1.37;;
773;SDS011;370;48.810;9.150;2022-08-02T02:45:09;1.50;;;1.43;;
773;SDS011;370;48.810;9.150;2022-08-02T02:47:37;1.37;;;1.27;;
773;SDS011;370;48.810;9.150;2022-08-02T02:50:06;2.50;;;1.50;;
773;SDS011;370;48.810;9.150;2022-08-02T02:52:34;1.90;;;1.60;;
773;SDS011;370;48.810;9.150;2022-08-02T02:55:03;3.37;;;1.70;;
773;SDS011;370;48.810;9.150;2022-08-02T02:57:31;1.40;;;1.30;;
773;SDS011;370;48.810;9.150;2022-08-02T02:59:59;1.33;;;1.20;;
773;SDS011;370;48.810;9.150;2022-08-02T03:02:26;1.50;;;1.47;;
773;SDS011;370;48.810;9.150;2022-08-02T03:04:53;1.70;;;1.47;;
773;SDS011;370;48.810;9.150;2022-08-02T03:07:22;2.40;;;1.73;;
773;SDS011;370;48.810;9.150;2022-08-02T03:09:49;2.50;;;1.70;;
773;SDS011;370;48.810;9.150;2022-08-02T03:12:16;3.70;;;1.90;;
773;SDS011;370;48.810;9.150;2022-08-02T03:14:42;2.33;;;1.67;;
773;SDS011;370;48.810;9.150;2022-08-02T03:17:09;5.13;;;2.10;;
773;SDS011;370;48.810;9.150;2022-08-02T03:19:36;3.20;;;2.00;;
773;SDS011;370;48.810;9.150;2022-08-02T03:22:03;4.87;;;1.50;;
773;SDS011;370;48.810;9.150;2022-08-02T03:24:31;4.23;;;1.43;;
773;SDS011;370;48.810;9.150;2022-08-02T03:26:57;3.97;;;1.93;;
773;SDS011;370;48.810;9.150;2022-08-02T03:29:24;2.13;;;1.70;;
773;SDS011;370;48.810;9.150;2022-08-02T03:31:51;1.80;;;1.37;;
773;SDS011;370;48.810;9.150;2022-08-02T03:34:18;5.80;;;1.93;;
773;SDS011;370;48.810;9.150;2022-08-02T03:36:46;2.60;;;1.50;;
773;SDS011;370;48.810;9.150;2022-08-02T03:39:15;1.43;;;1.37;;
773;SDS011;370;48.810;9.150;2022-08-02T03:41:45;5.77;;;1.77;;
773;SDS011;370;48.810;9.150;2022-08-02T03:44:14;4.63;;;2.13;;
773;SDS011;370;48.810;9.150;2022-08-02T03:46:41;2.97;;;1.70;;
773;SDS011;370;48.810;9.150;2022-08-02T03:49:09;3.00;;;1.43;;
773;SDS011;370;48.810;9.150;2022-08-02T03:51:36;2.10;;;1.60;;
773;SDS011;370;48.810;9.150;2022-08-02T03:54:04;3.77;;;1.87;;
773;SDS011;370;48.810;9.150;2022-08-02T03:56:31;2.30;;;1.67;;
773;SDS011;370;48.810;9.150;2022-08-02T03:59:07;2.67;;;1.80;;
773;SDS011;370;48.810;9.150;2022-08-02T04:01:35;1.87;;;1.23;;
773;SDS011;370;48.810;9.150;2022-08-02T04:04:02;3.50;;;1.57;;
773;SDS011;370;48.810;9.150;2022-08-02T04:06:29;3.10;;;1.87;;
773;SDS011;370;48.810;9.150;2022-08-02T04:08:56;2.20;;;1.67;;
773;SDS011;370;48.810;9.150;2022-08-02T04:11:22;4.07;;;1.57;;
773;SDS011;370;48.810;9.150;2022-08-02T04:13:59;1.53;;;1.30;;
773;SDS011;370;48.810;9.150;2022-08-02T04:16:33;2.00;;;1.77;;
773;SDS011;370;48.810;9.150;2022-08-02T04:19:06;4.37;;;1.47;;
773;SDS011;370;48.810;9.150;2022-08-02T04:21:36;1.50;;;1.40;;
773;SDS011;370;48.810;9.150;2022-08-02T04:24:07;2.53;;;1.80;;
773;SDS011;370;48.810;9.150;2022-08-02T04:26:35;2.30;;;1.10;;
773;SDS011;370;48.810;9.150;2022-08-02T04:29:03;1.77;;;1.40;;
773;SDS011;370;48.810;9.150;2022-08-02T04:31:32;2.60;;;1.60;;
773;SDS011;370;48.810;9.150;2022-08-02T04:34:00;1.90;;;1.43;;
773;SDS011;370;48.810;9.150;2022-08-02T04:36:27;6.13;;;1.63;;
773;SDS011;370;48.810;9.150;2022-08-02T04:38:54;3.40;;;1.60;;
773;SDS011;370;48.810;9.150;2022-08-02T04:41:21;1.60;;;1.53;;
773;SDS011;370;48.810;9.150;2022-08-02T04:43:48;3.70;;;1.70;;
773;SDS011;370;48.810;9.150;2022-08-02T04:46:14;4.60;;;1.97;;
773;SDS011;370;48.810;9.150;2022-08-02T04:48:42;2.80;;;1.70;;
773;SDS011;370;48.810;9.150;2022-08-02T04:51:09;5.47;;;1.60;;
773;SDS011;370;48.810;9.150;2022-08-02T04:53:36;1.47;;;1.37;;
773;SDS011;370;48.810;9.150;2022-08-02T04:56:03;4.03;;;1.93;;
773;SDS011;370;48.810;9.150;2022-08-02T04:58:30;5.17;;;1.57;;
773;SDS011;370;48.810;9.150;2022-08-02T05:00:56;2.53;;;1.67;;
773;SDS011;370;48.810;9.150;2022-08-02T05:03:23;8.43;;;1.43;;
773;SDS011;370;48.810;9.150;2022-08-02T05:05:51;5.10;;;1.70;;
773;SDS011;370;48.810;9.150;2022-08-02T05:08:18;4.20;;;1.90;;
773;SDS011;370;48.810;9.150;2022-08-02T05:10:44;2.73;;;1.90;;
773;SDS011;370;48.810;9.150;2022-08-02T05:13:11;1.70;;;1.60;;
773;SDS011;370;48.810;9.150;2022-08-02T05:15:38;2.00;;;1.60;;
773;SDS011;370;48.810;9.150;2022-08-02T05:18:04;2.40;;;1.63;;
773;SDS011;370;48.810;9.150;2022-08-02T05:20:31;2.50;;;2.17;;
773;SDS011;370;48.810;9.150;2022-08-02T05:22:59;3.00;;;2.27;;
773;SDS011;370;48.810;9.150;2022-08-02T05:25:27;5.33;;;2.13;;
773;SDS011;370;48.810;9.150;2022-08-02T05:27:54;2.57;;;1.73;;
773;SDS011;370;48.810;9.150;2022-08-02T05:30:21;4.97;;;1.73;;
773;SDS011;370;48.810;9.150;2022-08-02T05:32:48;3.00;;;2.00;;
773;SDS011;370;48.810;9.150;2022-08-02T05:35:16;3.43;;;1.97;;
773;SDS011;370;48.810;9.150;2022-08-02T05:37:45;4.43;;;2.37;;
773;SDS011;370;48.810;9.150;2022-08-02T05:40:13;3.30;;;2.00;;
773;SDS011;370;48.810;9.150;2022-08-02T05:42:41;2.60;;;2.03;;
773;SDS011;370;48.810;9.150;2022-08-02T05:45:08;1.90;;;1.80;;
773;SDS011;370;48.810;9.150;2022-08-02T05:47:36;1.80;;;1.63;;
773;SDS011;370;48.810;9.150;2022-08-02T05:50:04;2.30;;;2.03;;
773;SDS011;370;48.810;9.150;2022-08-02T05:52:34;2.47;;;2.10;;
773;SDS011;370;48.810;9.150;2022-08-02T05:55:10;2.90;;;2.57;;
773;SDS011;370;48.810;9.150;2022-08-02T05:57:44;2.67;;;1.77;;
773;SDS011;370;48.810;9.150;2022-08-02T06:00:16;3.23;;;2.00;;
773;SDS011;370;48.810;9.150;2022-08-02T06:02:49;3.60;;;1.60;;
773;SDS011;370;48.810;9.150;2022-08-02T06:05:31;2.70;;;1.97;;
773;SDS011;370;48.810;9.150;2022-08-02T06:07:59;2.37;;;1.97;;
773;SDS011;370;48.810;9.150;2022-08-02T06:10:28;1.40;;;1.30;;
773;SDS011;370;48.810;9.150;2022-08-02T06:13:04;3.00;;;1.73;;
773;SDS011;370;48.810;9.150;2022-08-02T06:15:34;2.23;;;1.70;;
773;SDS011;370;48.810;9.150;2022-08-02T06:18:02;3.10;;;1.50;;
773;SDS011;370;48.810;9.150;2022-08-02T06:20:29;2.90;;;2.10;;
773;SDS011;370;48.810;9.150;2022-08-02T06:22:59;2.17;;;1.70;;
773;SDS011;370;48.810;9.150;2022-08-02T06:25:26;3.43;;;1.90;;
773;SDS011;370;48.810;9.150;2022-08-02T06:27:54;1.67;;;1.63;;
773;SDS011;370;48.810;9.150;2022-08-02T06:30:24;5.03;;;1.40;;
773;SDS011;370;48.810;9.150;2022-08-02T06:32:51;6.43;;;1.77;;
773;SDS011;370;48.810;9.150;2022-08-02T06:35:18;2.57;;;1.90;;
773;SDS011;370;48.810;9.150;2022-08-02T06:37:47;1.80;;;1.40;;
773;SDS011;370;48.810;9.150;2022-08-02T06:40:20;5.50;;;2.63;;
773;SDS011;370;48.810;9.150;2022-08-02T06:42:55;9.83;;;2.67;;
773;SDS011;370;48.810;9.150;2022-08-02T06:45:32;4.73;;;2.20;;
773;SDS011;370;48.810;9.150;2022-08-02T06:48:00;2.33;;;1.60;;
773;SDS011;370;48.810;9.150;2022-08-02T06:50:28;1.90;;;1.70;;
773;SDS011;370;48.810;9.150;2022-08-02T06:52:55;3.50;;;1.67;;
773;SDS011;370;48.810;9.150;2022-08-02T06:55:22;18.60;;;1.93;;
773;SDS011;370;48.810;9.150;2022-08-02T06:57:49;2.20;;;2.00;;
773;SDS011;370;48.810;9.150;2022-08-02T07:00:16;9.10;;;2.20;;
773;SDS011;370;48.810;9.150;2022-08-02T07:02:44;2.73;;;2.00;;
773;SDS011;370;48.810;9.150;2022-08-02T07:05:11;3.20;;;1.80;;
773;SDS011;370;48.810;9.150;2022-08-02T07:07:38;3.13;;;1.83;;
773;SDS011;370;48.810;9.150;2022-08-02T07:10:05;4.20;;;2.43;;
773;SDS011;370;48.810;9.150;2022-08-02T07:12:32;3.77;;;2.20;;
773;SDS011;370;48.810;9.150;2022-08-02T07:15:03;3.10;;;2.20;;
773;SDS011;370;48.810;9.150;2022-08-02T07:17:32;5.07;;;2.10;;
773;SDS011;370;48.810;9.150;2022-08-02T07:20:00;2.93;;;2.10;;
773;SDS011;370;48.810;9.150;2022-08-02T07:22:28;2.13;;;1.70;;
773;SDS011;370;48.810;9.150;2022-08-02T07:24:56;2.50;;;2.33;;
773;SDS011;370;48.810;9.150;2022-08-02T07:27:25;4.03;;;2.53;;
773;SDS011;370;48.810;9.150;2022-08-02T07:29:54;7.50;;;2.30;;
773;SDS011;370;48.810;9.150;2022-08-02T07:32:22;4.30;;;2.77;;
773;SDS011;370;48.810;9.150;2022-08-02T07:34:51;2.37;;;2.10;;
773;SDS011;370;48.810;9.150;2022-08-02T07:37:20;3.87;;;2.87;;
773;SDS011;370;48.810;9.150;2022-08-02T07:39:48;3.63;;;2.70;;
773;SDS011;370;48.810;9.150;2022-08-02T07:42:15;12.57;;;2.67;;
773;SDS011;370;48.810;9.150;2022-08-02T07:44:42;7.90;;;2.33;;
773;SDS011;370;48.810;9.150;2022-08-02T07:47:09;2.10;;;1.90;;
773;SDS011;370;48.810;9.150;2022-08-02T07:49:35;8.40;;;2.30;;
773;SDS011;370;48.810;9.150;2022-08-02T07:52:02;4.50;;;1.97;;
773;SDS011;370;48.810;9.150;2022-08-02T07:54:31;2.93;;;1.93;;
773;SDS011;370;48.810;9.150;2022-08-02T07:57:01;2.80;;;2.17;;
773;SDS011;370;48.810;9.150;2022-08-02T07:59:29;6.27;;;2.37;;
773;SDS011;370;48.810;9.150;2022-08-02T08:01:56;6.33;;;2.30;;
773;SDS011;370;48.810;9.150;2022-08-02T08:04:26;3.90;;;2.67;;
773;SDS011;370;48.810;9.150;2022-08-02T08:09:49;3.27;;;2.57;;
773;SDS011;370;48.810;9.150;2022-08-02T08:12:22;10.33;;;2.70;;
773;SDS011;370;48.810;9.150;2022-08-02T08:14:49;2.70;;;2.37;;
773;SDS011;370;48.810;9.150;2022-08-02T08:17:16;3.30;;;2.50;;
773;SDS011;370;48.810;9.150;2022-08-02T08:19:43;6.50;;;2.40;;
773;SDS011;370;48.810;9.150;2022-08-02T08:22:11;5.90;;;2.80;;
773;SDS011;370;48.810;9.150;2022-08-02T08:24:38;9.80;;;2.60;;
773;SDS011;370;48.810;9.150;2022-08-02T08:27:06;3.97;;;2.70;;
773;SDS011;370;48.810;9.150;2022-08-02T08:29:38;5.10;;;3.00;;
773;SDS011;370;48.810;9.150;2022-08-02T08:32:05;4.40;;;2.60;;
773;SDS011;370;48.810;9.150;2022-08-02T08:34:32;3.97;;;2.80;;
773;SDS011;370;48.810;9.150;2022-08-02T08:36:59;2.53;;;2.43;;
773;SDS011;370;48.810;9.150;2022-08-02T08:39:27;3.33;;;3.10;;
773;SDS011;370;48.810;9.150;2022-08-02T08:41:54;5.10;;;2.80;;
773;SDS011;370;48.810;9.150;2022-08-02T08:44:22;9.30;;;3.37;;
773;SDS011;370;48.810;9.150;2022-08-02T08:46:51;5.20;;;3.80;;
773;SDS011;370;48.810;9.150;2022-08-02T08:49:22;5.10;;;3.97;;
773;SDS011;370;48.810;9.150;2022-08-02T08:51:52;4.57;;;3.40;;
773;SDS011;370;48.810;9.150;2022-08-02T08:54:22;17.10;;;3.63;;
773;SDS011;370;48.810;9.150;2022-08-02T08:56:50;5.33;;;3.57;;
773;SDS011;370;48.810;9.150;2022-08-02T08:59:19;6.80;;;3.10;;
773;SDS011;370;48.810;9.150;2022-08-02T09:01:48;7.43;;;3.40;;
773;SDS011;370;48.810;9.150;2022-08-02T09:04:15;2.80;;;2.60;;
773;SDS011;370;48.810;9.150;2022-08-02T09:06:42;8.73;;;3.10;;
773;SDS011;370;48.810;9.150;2022-08-02T09:09:09;7.43;;;3.80;;
773;SDS011;370;48.810;9.150;2022-08-02T09:11:36;4.87;;;3.53;;
773;SDS011;370;48.810;9.150;2022-08-02T09:14:02;4.20;;;3.47;;
773;SDS011;370;48.810;9.150;2022-08-02T09:16:32;3.70;;;3.53;;
773;SDS011;370;48.810;9.150;2022-08-02T09:19:00;11.53;;;3.93;;
773;SDS011;370;48.810;9.150;2022-08-02T09:21:42;7.47;;;3.50;;
773;SDS011;370;48.810;9.150;2022-08-02T09:24:16;10.20;;;3.47;;
773;SDS011;370;48.810;9.150;2022-08-02T09:26:44;6.20;;;4.20;;
773;SDS011;370;48.810;9.150;2022-08-02T09:29:11;4.80;;;3.60;;
773;SDS011;370;48.810;9.150;2022-08-02T09:31:40;17.00;;;3.27;;
773;SDS011;370;48.810;9.150;2022-08-02T09:34:07;3.83;;;3.53;;
773;SDS011;370;48.810;9.150;2022-08-02T09:36:39;4.23;;;3.27;;
773;SDS011;370;48.810;9.150;2022-08-02T09:39:07;6.83;;;3.27;;
773;SDS011;370;48.810;9.150;2022-08-02T09:41:36;5.40;;;3.43;;
773;SDS011;370;48.810;9.150;2022-08-02T09:44:05;4.40;;;3.60;;
773;SDS011;370;48.810;9.150;2022-08-02T09:46:35;3.90;;;3.47;;
773;SDS011;370;48.810;9.150;2022-08-02T09:49:04;5.30;;;4.00;;
773;SDS011;370;48.810;9.150;2022-08-02T09:51:34;3.10;;;2.83;;
773;SDS011;370;48.810;9.150;2022-08-02T09:54:03;9.70;;;3.57;;
773;SDS011;370;48.810;9.150;2022-08-02T09:56:43;2.97;;;2.80;;
773;SDS011;370;48.810;9.150;2022-08-02T09:59:11;7.10;;;3.40;;
773;SDS011;370;48.810;9.150;2022-08-02T10:01:38;4.67;;;3.13;;
773;SDS011;370;48.810;9.150;2022-08-02T10:04:08;5.17;;;3.20;;
773;SDS011;370;48.810;9.150;2022-08-02T10:06:36;6.67;;;3.30;;
773;SDS011;370;48.810;9.150;2022-08-02T10:09:04;4.70;;;3.63;;
773;SDS011;370;48.810;9.150;2022-08-02T10:11:31;5.00;;;3.23;;
773;SDS011;370;48.810;9.150;2022-08-02T10:13:59;4.53;;;3.40;;
773;SDS011;370;48.810;9.150;2022-08-02T10:16:29;7.17;;;3.27;;
773;SDS011;370;48.810;9.150;2022-08-02T10:18:58;5.17;;;2.90;;
773;SDS011;370;48.810;9.150;2022-08-02T10:21:31;3.70;;;3.50;;
773;SDS011;370;48.810;9.150;2022-08-02T10:24:03;5.60;;;3.43;;
773;SDS011;370;48.810;9.150;2022-08-02T10:26:32;3.50;;;3.27;;
773;SDS011;370;48.810;9.150;2022-08-02T10:28:59;8.57;;;3.27;;
773;SDS011;370;48.810;9.150;2022-08-02T10:31:26;4.40;;;3.50;;
773;SDS011;370;48.810;9.150;2022-08-02T10:33:59;3.50;;;3.27;;
773;SDS011;370;48.810;9.150;2022-08-02T10:36:30;3.63;;;3.43;;
773;SDS011;370;48.810;9.150;2022-08-02T10:38:59;20.80;;;3.93;;
773;SDS011;370;48.810;9.150;2022-08-02T10:41:40;7.50;;;3.90;;
773;SDS011;370;48.810;9.150;2022-08-02T10:44:24;6.53;;;4.97;;
773;SDS011;370;48.810;9.150;2022-08-02T10:47:17;4.77;;;4.47;;
773;SDS011;370;48.810;9.150;2022-08-02T10:49:48;3.77;;;3.57;;
773;SDS011;370;48.810;9.150;2022-08-02T10:52:18;4.80;;;3.93;;
773;SDS011;370;48.810;9.150;2022-08-02T10:54:50;4.37;;;4.07;;
773;SDS011;370;48.810;9.150;2022-08-02T10:57:22;6.20;;;4.10;;
773;SDS011;370;48.810;9.150;2022-08-02T10:59:50;5.40;;;4.73;;
773;SDS011;370;48.810;9.150;2022-08-02T11:02:32;4.40;;;3.50;;
773;SDS011;370;48.810;9.150;2022-08-02T11:05:08;4.20;;;4.00;;
773;SDS011;370;48.810;9.150;2022-08-02T11:07:38;4.73;;;3.33;;
773;SDS011;370;48.810;9.150;2022-08-02T11:13:04;5.40;;;3.47;;
773;SDS011;370;48.810;9.150;2022-08-02T11:15:55;13.00;;;6.40;;
773;SDS011;370;48.810;9.150;2022-08-02T11:21:28;4.27;;;3.40;;
773;SDS011;370;48.810;9.150;2022-08-02T11:24:21;4.97;;;3.50;;
773;SDS011;370;48.810;9.150;2022-08-02T11:26:52;5.23;;;3.00;;
773;SDS011;370;48.810;9.150;2022-08-02T11:29:19;4.27;;;3.30;;
773;SDS011;370;48.810;9.150;2022-08-02T11:31:46;5.10;;;3.30;;
773;SDS011;370;48.810;9.150;2022-08-02T11:34:14;3.70;;;3.10;;
773;SDS011;370;48.810;9.150;2022-08-02T11:36:42;3.87;;;3.10;;
773;SDS011;370;48.810;9.150;2022-08-02T11:39:11;4.73;;;2.80;;
773;SDS011;370;48.810;9.150;2022-08-02T11:41:39;4.00;;;3.17;;
773;SDS011;370;48.810;9.150;2022-08-02T11:44:06;4.10;;;3.00;;
773;SDS011;370;48.810;9.150;2022-08-02T11:46:33;3.60;;;3.40;;
773;SDS011;370;48.810;9.150;2022-08-02T11:49:10;6.30;;;3.50;;
773;SDS011;370;48.810;9.150;2022-08-02T11:51:53;5.70;;;4.10;;
773;SDS011;370;48.810;9.150;2022-08-02T11:54:25;7.23;;;4.13;;
773;SDS011;370;48.810;9.150;2022-08-02T11:56:54;5.43;;;4.07;;
773;SDS011;370;48.810;9.150;2022-08-02T11:59:36;4.60;;;4.30;;
773;SDS011;370;48.810;9.150;2022-08-02T12:02:03;3.97;;;3.77;;
773;SDS011;370;48.810;9.150;2022-08-02T12:04:31;4.40;;;3.83;;
773;SDS011;370;48.810;9.150;2022-08-02T12:06:58;4.60;;;4.30;;
773;SDS011;370;48.810;9.150;2022-08-02T12:09:28;4.03;;;3.80;;
773;SDS011;370;48.810;9.150;2022-08-02T12:11:56;6.57;;;4.67;;
773;SDS011;370;48.810;9.150;2022-08-02T12:14:24;4.60;;;4.30;;
773;SDS011;370;48.810;9.150;2022-08-02T12:16:52;4.40;;;3.90;;
773;SDS011;370;48.810;9.150;2022-08-02T12:19:37;4.67;;;4.20;;
773;SDS011;370;48.810;9.150;2022-08-02T12:22:05;4.10;;;3.90;;
773;SDS011;370;48.810;9.150;2022-08-02T12:24:35;6.37;;;3.10;;
773;SDS011;370;48.810;9.150;2022-08-02T12:27:03;4.00;;;3.37;;
773;SDS011;370;48.810;9.150;2022-08-02T12:29:30;4.40;;;3.80;;
773;SDS011;370;48.810;9.150;2022-08-02T12:31:58;5.20;;;3.60;;
773;SDS011;370;48.810;9.150;2022-08-02T12:34:26;3.10;;;2.90;;
773;SDS011;370;48.810;9.150;2022-08-02T12:36:57;4.57;;;3.60;;
773;SDS011;370;48.810;9.150;2022-08-02T12:39:33;3.83;;;3.63;;
773;SDS011;370;48.810;9.150;2022-08-02T12:42:03;3.70;;;3.20;;
773;SDS011;370;48.810;9.150;2022-08-02T12:44:31;4.93;;;3.10;;
773;SDS011;370;48.810;9.150;2022-08-02T12:46:58;3.73;;;3.57;;
773;SDS011;370;48.810;9.150;2022-08-02T12:49:26;3.73;;;3.20;;
773;SDS011;370;48.810;9.150;2022-08-02T12:51:53;3.80;;;3.33;;
773;SDS011;370;48.810;9.150;2022-08-02T12:54:21;4.67;;;3.30;;
773;SDS011;370;48.810;9.150;2022-08-02T12:56:51;3.97;;;2.83;;
773;SDS011;370;48.810;9.150;2022-08-02T12:59:32;3.93;;;3.00;;
773;SDS011;370;48.810;9.150;2022-08-02T13:02:00;3.97;;;2.97;;
773;SDS011;370;48.810;9.150;2022-08-02T13:04:28;4.33;;;3.40;;
773;SDS011;370;48.810;9.150;2022-08-02T13:06:55;3.43;;;2.40;;
773;SDS011;370;48.810;9.150;2022-08-02T13:09:22;3.20;;;2.73;;
773;SDS011;370;48.810;9.150;2022-08-02T13:11:50;3.33;;;2.87;;
773;SDS011;370;48.810;9.150;2022-08-02T13:14:17;3.47;;;2.90;;
773;SDS011;370;48.810;9.150;2022-08-02T13:16:44;5.17;;;2.53;;
773;SDS011;370;48.810;9.150;2022-08-02T13:19:12;3.30;;;2.90;;
773;SDS011;370;48.810;9.150;2022-08-02T13:21:40;4.50;;;2.83;;
773;SDS011;370;48.810;9.150;2022-08-02T13:24:07;2.37;;;2.17;;
773;SDS011;370;48.810;9.150;2022-08-02T13:26:38;2.50;;;2.30;;
773;SDS011;370;48.810;9.150;2022-08-02T13:29:07;2.47;;;2.33;;
773;SDS011;370;48.810;9.150;2022-08-02T13:31:34;6.23;;;2.70;;
773;SDS011;370;48.810;9.150;2022-08-02T13:34:02;3.20;;;2.70;;
773;SDS011;370;48.810;9.150;2022-08-02T13:36:30;4.00;;;2.90;;
773;SDS011;370;48.810;9.150;2022-08-02T13:38:57;2.57;;;2.40;;
773;SDS011;370;48.810;9.150;2022-08-02T13:41:24;5.97;;;2.63;;
773;SDS011;370;48.810;9.150;2022-08-02T13:43:51;3.63;;;2.73;;
773;SDS011;370;48.810;9.150;2022-08-02T13:46:19;5.00;;;2.50;;
773;SDS011;370;48.810;9.150;2022-08-02T13:48:46;4.50;;;2.53;;
773;SDS011;370;48.810;9.150;2022-08-02T13:51:13;4.27;;;3.07;;
773;SDS011;370;48.810;9.150;2022-08-02T13:53:39;7.53;;;2.80;;
773;SDS011;370;48.810;9.150;2022-08-02T13:56:07;3.10;;;2.77;;
773;SDS011;370;48.810;9.150;2022-08-02T13:58:34;2.73;;;2.53;;
773;SDS011;370;48.810;9.150;2022-08-02T14:01:00;7.33;;;2.43;;
773;SDS011;370;48.810;9.150;2022-08-02T14:03:29;3.03;;;2.53;;
773;SDS011;370;48.810;9.150;2022-08-02T14:05:55;4.00;;;2.53;;
773;SDS011;370;48.810;9.150;2022-08-02T14:08:22;2.67;;;2.00;;
773;SDS011;370;48.810;9.150;2022-08-02T14:10:50;3.13;;;2.57;;
773;SDS011;370;48.810;9.150;2022-08-02T14:13:17;2.70;;;2.37;;
773;SDS011;370;48.810;9.150;2022-08-02T14:15:45;2.70;;;2.50;;
773;SDS011;370;48.810;9.150;2022-08-02T14:18:12;2.60;;;2.40;;
773;SDS011;370;48.810;9.150;2022-08-02T14:20:40;3.20;;;2.50;;
773;SDS011;370;48.810;9.150;2022-08-02T14:23:07;2.30;;;2.10;;
773;SDS011;370;48.810;9.150;2022-08-02T14:25:34;4.00;;;2.93;;
773;SDS011;370;48.810;9.150;2022-08-02T14:28:02;2.77;;;2.60;;
773;SDS011;370;48.810;9.150;2022-08-02T14:30:29;2.50;;;2.33;;
773;SDS011;370;48.810;9.150;2022-08-02T14:32:56;4.57;;;2.60;;
773;SDS011;370;48.810;9.150;2022-08-02T14:35:23;2.90;;;2.70;;
773;SDS011;370;48.810;9.150;2022-08-02T14:37:51;3.03;;;2.50;;
773;SDS011;370;48.810;9.150;2022-08-02T14:40:18;2.60;;;2.40;;
773;SDS011;370;48.810;9.150;2022-08-02T14:42:44;2.67;;;2.30;;
773;SDS011;370;48.810;9.150;2022-08-02T14:45:11;3.70;;;2.30;;
773;SDS011;370;48.810;9.150;2022-08-02T14:47:39;3.27;;;2.50;;
773;SDS011;370;48.810;9.150;2022-08-02T14:50:06;4.20;;;2.47;;
773;SDS011;370;48.810;9.150;2022-08-02T14:52:33;2.27;;;2.13;;
773;SDS011;370;48.810;9.150;2022-08-02T14:55:01;6.53;;;2.30;;
773;SDS011;370;48.810;9.150;2022-08-02T14:57:29;6.20;;;2.40;;
773;SDS011;370;48.810;9.150;2022-08-02T14:59:56;3.13;;;2.50;;
773;SDS011;370;48.810;9.150;2022-08-02T15:02:24;3.97;;;2.37;;
773;SDS011;370;48.810;9.150;2022-08-02T15:04:51;2.50;;;2.30;;
773;SDS011;370;48.810;9.150;2022-08-02T15:07:18;5.50;;;2.70;;
773;SDS011;370;48.810;9.150;2022-08-02T15:09:45;11.83;;;2.60;;
773;SDS011;370;48.810;9.150;2022-08-02T15:12:13;5.47;;;2.60;;
773;SDS011;370;48.810;9.150;2022-08-02T15:14:40;22.27;;;2.53;;
773;SDS011;370;48.810;9.150;2022-08-02T15:17:08;3.67;;;2.53;;
773;SDS011;370;48.810;9.150;2022-08-02T15:19:35;12.80;;;2.53;;
773;SDS011;370;48.810;9.150;2022-08-02T15:22:02;11.83;;;2.80;;
773;SDS011;370;48.810;9.150;2022-08-02T15:24:29;5.67;;;2.37;;
773;SDS011;370;48.810;9.150;2022-08-02T15:26:55;4.77;;;3.00;;
773;SDS011;370;48.810;9.150;2022-08-02T15:29:23;4.50;;;2.43;;
773;SDS011;370;48.810;9.150;2022-08-02T15:31:50;19.63;;;2.33;;
773;SDS011;370;48.810;9.150;2022-08-02T15:34:17;2.20;;;2.00;;
773;SDS011;370;48.810;9.150;2022-08-02T15:36:44;2.60;;;2.43;;
773;SDS011;370;48.810;9.150;2022-08-02T15:39:11;3.93;;;2.00;;
773;SDS011;370;48.810;9.150;2022-08-02T15:41:37;4.07;;;2.17;;
773;SDS011;370;48.810;9.150;2022-08-02T15:44:06;2.23;;;2.03;;
773;SDS011;370;48.810;9.150;2022-08-02T15:46:35;3.60;;;2.37;;
773;SDS011;370;48.810;9.150;2022-08-02T15:49:03;2.37;;;2.00;;
773;SDS011;370;48.810;9.150;2022-08-02T15:51:30;2.50;;;2.30;;
773;SDS011;370;48.810;9.150;2022-08-02T15:53:57;2.40;;;2.20;;
773;SDS011;370;48.810;9.150;2022-08-02T15:56:24;3.80;;;2.00;;
773;SDS011;370;48.810;9.150;2022-08-02T15:58:50;4.60;;;2.27;;
773;SDS011;370;48.810;9.150;2022-08-02T16:01:17;2.30;;;2.10;;
773;SDS011;370;48.810;9.150;2022-08-02T16:03:45;3.27;;;2.10;;